Time,TemperatureF,DewpointF,PressureIn,WindDirection,WindDirectionDegrees,WindSpeedMPH,WindSpeedGustMPH,Humidity,HourlyPrecipIn,Conditions,Clouds,dailyrainin,SoftwareType,DateUTC
2013-03-12 00:12:00,46.2,45.0,29.91,NW,315,3.0,8.0,94,0.00,,,0.00,weatherlink.com 1.10,2013-03-12 05:12:00,
2013-03-12 00:27:00,45.9,44.0,29.91,NW,325,0.0,8.0,94,0.00,,,0.00,weatherlink.com 1.10,2013-03-12 05:27:00,
2013-03-12 00:42:00,45.5,44.0,29.91,WNW,300,2.0,4.0,95,0.00,,,0.00,weatherlink.com 1.10,2013-03-12 05:42:00,
2013-03-12 00:57:00,45.2,44.0,29.91,NW,316,1.0,4.0,95,0.00,,,0.00,weatherlink.com 1.10,2013-03-12 05:57:00,
2013-03-12 01:12:00,44.9,44.0,29.91,NW,320,2.0,4.0,95,0.00,,,0.00,weatherlink.com 1.10,2013-03-12 06:12:00,
2013-03-12 01:27:00,44.7,43.0,29.92,NNW,340,0.0,4.0,95,0.00,,,0.00,weatherlink.com 1.10,2013-03-12 06:27:00,
2013-03-12 01:42:00,44.6,43.0,29.92,WNW,288,0.0,4.0,94,0.00,,,0.00,weatherlink.com 1.10,2013-03-12 06:42:00,
2013-03-12 01:57:00,44.2,43.0,29.92,NW,317,2.0,4.0,95,0.00,,,0.00,weatherlink.com 1.10,2013-03-12 06:57:00,
2013-03-12 02:12:00,43.9,43.0,29.93,NNW,333,1.0,4.0,95,0.00,,,0.00,weatherlink.com 1.10,2013-03-12 07:12:00,
2013-03-12 02:27:00,43.6,42.0,29.92,NW,321,0.0,2.0,95,0.00,,,0.00,weatherlink.com 1.10,2013-03-12 07:27:00,
2013-03-12 02:42:00,43.4,42.0,29.92,North,353,0.0,3.0,95,0.00,,,0.00,weatherlink.com 1.10,2013-03-12 07:42:00,
2013-03-12 02:57:00,43.4,42.0,29.92,WNW,290,1.0,10.0,95,0.00,,,0.00,weatherlink.com 1.10,2013-03-12 07:57:00,
2013-03-12 03:12:00,43.2,42.0,29.92,WSW,238,1.0,5.0,95,0.00,,,0.00,weatherlink.com 1.10,2013-03-12 08:12:00,
2013-03-12 03:27:00,42.9,41.0,29.93,North,354,0.0,8.0,94,0.00,,,0.00,weatherlink.com 1.10,2013-03-12 08:27:00,
2013-03-12 03:42:00,42.8,41.0,29.93,West,281,1.0,10.0,94,0.00,,,0.00,weatherlink.com 1.10,2013-03-12 08:42:00,
2013-03-12 03:57:00,42.5,41.0,29.93,North,1,5.0,7.0,94,0.00,,,0.00,weatherlink.com 1.10,2013-03-12 08:57:00,
2013-03-12 04:12:00,42.4,41.0,29.93,NW,318,5.0,10.0,93,0.00,,,0.00,weatherlink.com 1.10,2013-03-12 09:12:00,
2013-03-12 04:27:00,42.1,41.0,29.95,North,6,3.0,12.0,94,0.00,,,0.00,weatherlink.com 1.10,2013-03-12 09:27:00,
2013-03-12 04:43:00,41.8,40.0,29.95,NNW,338,3.0,5.0,94,0.00,,,0.00,weatherlink.com 1.10,2013-03-12 09:43:00,
2013-03-12 04:58:00,41.5,40.0,29.96,North,357,1.0,6.0,93,0.00,,,0.00,weatherlink.com 1.10,2013-03-12 09:58:00,
2013-03-12 05:13:00,41.2,39.0,29.97,NNE,15,1.0,7.0,93,0.00,,,0.00,weatherlink.com 1.10,2013-03-12 10:13:00,
2013-03-12 05:28:00,40.8,39.0,29.98,NNW,335,6.0,7.0,93,0.00,,,0.00,weatherlink.com 1.10,2013-03-12 10:28:00,
2013-03-12 05:43:00,40.6,39.0,29.98,NNW,336,5.0,10.0,92,0.00,,,0.00,weatherlink.com 1.10,2013-03-12 10:43:00,
2013-03-12 05:58:00,40.4,38.0,29.99,NNW,344,6.0,10.0,90,0.00,,,0.00,weatherlink.com 1.10,2013-03-12 10:58:00,
2013-03-12 06:13:00,40.1,38.0,29.99,NNE,15,8.0,9.0,90,0.00,,,0.00,weatherlink.com 1.10,2013-03-12 11:13:00,
2013-03-12 06:28:00,40.0,37.0,30.00,NNW,345,6.0,10.0,90,0.00,,,0.00,weatherlink.com 1.10,2013-03-12 11:28:00,
2013-03-12 06:43:00,39.7,37.0,30.00,NW,307,4.0,8.0,90,0.00,,,0.00,weatherlink.com 1.10,2013-03-12 11:43:00,
2013-03-12 06:58:00,39.6,37.0,30.00,NW,313,2.0,7.0,89,0.00,,,0.00,weatherlink.com 1.10,2013-03-12 11:58:00,
2013-03-12 07:13:00,39.3,36.0,30.00,North,355,2.0,7.0,89,0.00,,,0.00,weatherlink.com 1.10,2013-03-12 12:13:00,
2013-03-12 07:28:00,39.2,37.0,30.01,NNE,13,0.0,4.0,90,0.00,,,0.00,weatherlink.com 1.10,2013-03-12 12:28:00,
2013-03-12 07:43:00,38.9,37.0,30.02,West,274,1.0,5.0,91,0.00,,,0.00,weatherlink.com 1.10,2013-03-12 12:43:00,
2013-03-12 07:58:00,39.5,37.0,30.02,NNE,18,2.0,5.0,90,0.00,,,0.00,weatherlink.com 1.10,2013-03-12 12:58:00,
2013-03-12 08:13:00,40.8,37.0,30.03,NNW,333,4.0,8.0,87,0.00,,,0.00,weatherlink.com 1.10,2013-03-12 13:13:00,
2013-03-12 08:28:00,42.0,38.0,30.04,North,349,4.0,11.0,84,0.00,,,0.00,weatherlink.com 1.10,2013-03-12 13:28:00,
2013-03-12 08:43:00,43.1,38.0,30.05,WNW,295,4.0,13.0,82,0.00,,,0.00,weatherlink.com 1.10,2013-03-12 13:43:00,
2013-03-12 08:58:00,44.6,38.0,30.04,NNW,345,5.0,11.0,79,0.00,,,0.00,weatherlink.com 1.10,2013-03-12 13:58:00,
2013-03-12 09:13:00,45.1,38.0,30.05,North,349,3.0,18.0,75,0.00,,,0.00,weatherlink.com 1.10,2013-03-12 14:13:00,
2013-03-12 09:28:00,45.9,37.0,30.05,West,259,8.0,12.0,71,0.00,,,0.00,weatherlink.com 1.10,2013-03-12 14:28:00,
2013-03-12 09:43:00,46.4,37.0,30.06,North,349,4.0,15.0,70,0.00,,,0.00,weatherlink.com 1.10,2013-03-12 14:43:00,
2013-03-12 09:58:00,46.9,36.0,30.06,North,5,9.0,15.0,67,0.00,,,0.00,weatherlink.com 1.10,2013-03-12 14:58:00,
2013-03-12 10:13:00,47.3,36.0,30.06,NNW,343,5.0,13.0,65,0.00,,,0.00,weatherlink.com 1.10,2013-03-12 15:13:00,
2013-03-12 10:28:00,48.6,36.0,30.07,North,9,12.0,13.0,61,0.00,,,0.00,weatherlink.com 1.10,2013-03-12 15:28:00,
2013-03-12 10:44:00,49.6,36.0,30.07,NNW,347,5.0,14.0,59,0.00,,,0.00,weatherlink.com 1.10,2013-03-12 15:44:00,
2013-03-12 10:59:00,50.6,36.0,30.06,West,264,2.0,12.0,58,0.00,,,0.00,weatherlink.com 1.10,2013-03-12 15:59:00,
2013-03-12 11:14:00,51.4,36.0,30.07,NE,34,8.0,13.0,56,0.00,,,0.00,weatherlink.com 1.10,2013-03-12 16:14:00,
2013-03-12 11:29:00,52.6,35.0,30.07,NW,314,5.0,12.0,51,0.00,,,0.00,weatherlink.com 1.10,2013-03-12 16:29:00,
2013-03-12 11:44:00,53.6,35.0,30.07,NNW,337,9.0,11.0,50,0.00,,,0.00,weatherlink.com 1.10,2013-03-12 16:44:00,
2013-03-12 11:59:00,54.4,35.0,30.07,NW,311,3.0,12.0,49,0.00,,,0.00,weatherlink.com 1.10,2013-03-12 16:59:00,
2013-03-12 12:14:00,55.2,34.0,30.07,North,355,9.0,13.0,45,0.00,,,0.00,weatherlink.com 1.10,2013-03-12 17:14:00,
2013-03-12 12:29:00,55.7,35.0,30.06,North,1,12.0,13.0,46,0.00,,,0.00,weatherlink.com 1.10,2013-03-12 17:29:00,
2013-03-12 12:43:00,56.8,35.0,30.06,WNW,298,7.0,10.0,45,0.00,,,0.00,weatherlink.com 1.10,2013-03-12 17:43:00,
2013-03-12 12:59:00,58.2,34.0,30.05,WNW,299,4.0,10.0,41,0.00,,,0.00,weatherlink.com 1.10,2013-03-12 17:59:00,
2013-03-12 13:14:00,59.1,36.0,30.05,NNW,335,6.0,8.0,42,0.00,,,0.00,weatherlink.com 1.10,2013-03-12 18:14:00,
2013-03-12 13:29:00,59.7,36.0,30.04,North,11,11.0,12.0,41,0.00,,,0.00,weatherlink.com 1.10,2013-03-12 18:29:00,
2013-03-12 13:44:00,60.5,34.0,30.04,NNE,29,6.0,11.0,37,0.00,,,0.00,weatherlink.com 1.10,2013-03-12 18:44:00,
2013-03-12 13:59:00,61.3,35.0,30.03,North,3,7.0,11.0,37,0.00,,,0.00,weatherlink.com 1.10,2013-03-12 18:59:00,
2013-03-12 14:14:00,61.2,35.0,30.03,WNW,297,5.0,11.0,37,0.00,,,0.00,weatherlink.com 1.10,2013-03-12 19:14:00,
2013-03-12 14:30:00,61.6,34.0,30.02,WNW,294,9.0,12.0,36,0.00,,,0.00,weatherlink.com 1.10,2013-03-12 19:30:00,
2013-03-12 14:44:00,62.0,36.0,30.02,NNW,330,8.0,11.0,38,0.00,,,0.00,weatherlink.com 1.10,2013-03-12 19:44:00,
2013-03-12 14:59:00,61.2,35.0,30.02,WNW,283,10.0,12.0,38,0.00,,,0.00,weatherlink.com 1.10,2013-03-12 19:59:00,
2013-03-12 15:14:00,61.9,34.0,30.02,NE,56,9.0,15.0,35,0.00,,,0.00,weatherlink.com 1.10,2013-03-12 20:14:00,
2013-03-12 15:29:00,62.7,35.0,30.02,NNE,13,8.0,13.0,36,0.00,,,0.00,weatherlink.com 1.10,2013-03-12 20:29:00,
2013-03-12 15:44:00,62.8,37.0,30.02,NNW,341,5.0,13.0,38,0.00,,,0.00,weatherlink.com 1.10,2013-03-12 20:44:00,
2013-03-12 15:59:00,63.2,36.0,30.03,NE,39,5.0,12.0,37,0.00,,,0.00,weatherlink.com 1.10,2013-03-12 20:59:00,
2013-03-12 16:14:00,63.0,37.0,30.03,NNE,13,3.0,10.0,39,0.00,,,0.00,weatherlink.com 1.10,2013-03-12 21:14:00,
2013-03-12 16:29:00,63.1,38.0,30.03,NNW,337,3.0,11.0,39,0.00,,,0.00,weatherlink.com 1.10,2013-03-12 21:29:00,
2013-03-12 16:44:00,63.2,37.0,30.03,NW,320,2.0,11.0,38,0.00,,,0.00,weatherlink.com 1.10,2013-03-12 21:44:00,
2013-03-12 16:59:00,63.1,37.0,30.03,NNW,330,4.0,9.0,38,0.00,,,0.00,weatherlink.com 1.10,2013-03-12 21:59:00,
2013-03-12 17:14:00,62.6,38.0,30.03,North,352,1.0,14.0,40,0.00,,,0.00,weatherlink.com 1.10,2013-03-12 22:14:00,
2013-03-12 17:29:00,62.3,36.0,30.03,NE,44,6.0,10.0,38,0.00,,,0.00,weatherlink.com 1.10,2013-03-12 22:29:00,
2013-03-12 17:44:00,61.7,36.0,30.03,NNE,32,0.0,8.0,39,0.00,,,0.00,weatherlink.com 1.10,2013-03-12 22:44:00,
2013-03-12 17:59:00,61.0,37.0,30.04,West,280,2.0,8.0,41,0.00,,,0.00,weatherlink.com 1.10,2013-03-12 22:59:00,
2013-03-12 18:15:00,59.8,38.0,30.04,NNW,345,0.0,7.0,45,0.00,,,0.00,weatherlink.com 1.10,2013-03-12 23:15:00,
2013-03-12 18:29:00,58.6,39.0,30.05,NE,51,1.0,4.0,48,0.00,,,0.00,weatherlink.com 1.10,2013-03-12 23:29:00,
2013-03-12 18:44:00,57.2,38.0,30.05,NNW,345,1.0,6.0,49,0.00,,,0.00,weatherlink.com 1.10,2013-03-12 23:44:00,
2013-03-12 19:00:00,56.0,37.0,30.06,NW,316,0.0,3.0,50,0.00,,,0.00,weatherlink.com 1.10,2013-03-13 00:00:00,
2013-03-12 19:14:00,54.3,38.0,30.06,NW,320,0.0,2.0,54,0.00,,,0.00,weatherlink.com 1.10,2013-03-13 00:14:00,
2013-03-12 19:29:00,52.7,37.0,30.07,NNE,25,0.0,0.0,56,0.00,,,0.00,weatherlink.com 1.10,2013-03-13 00:29:00,
2013-03-12 19:45:00,51.6,38.0,30.08,NNE,24,0.0,0.0,60,0.00,,,0.00,weatherlink.com 1.10,2013-03-13 00:45:00,
2013-03-12 20:00:00,50.4,37.0,30.09,NNE,23,0.0,0.0,61,0.00,,,0.00,weatherlink.com 1.10,2013-03-13 01:00:00,
2013-03-12 20:15:00,49.2,38.0,30.09,WNW,294,0.0,1.0,66,0.00,,,0.00,weatherlink.com 1.10,2013-03-13 01:15:00,
2013-03-12 20:30:00,49.0,39.0,30.10,NNW,338,0.0,2.0,69,0.00,,,0.00,weatherlink.com 1.10,2013-03-13 01:30:00,
2013-03-12 20:45:00,49.0,39.0,30.10,NNW,340,0.0,2.0,68,0.00,,,0.00,weatherlink.com 1.10,2013-03-13 01:45:00,
2013-03-12 21:00:00,48.9,39.0,30.11,North,11,0.0,1.0,69,0.00,,,0.00,weatherlink.com 1.10,2013-03-13 02:00:00,
2013-03-12 21:15:00,49.0,39.0,30.12,NNW,342,0.0,3.0,69,0.00,,,0.00,weatherlink.com 1.10,2013-03-13 02:15:00,
2013-03-12 21:30:00,48.2,39.0,30.12,NNW,348,0.0,1.0,70,0.00,,,0.00,weatherlink.com 1.10,2013-03-13 02:30:00,
2013-03-12 21:45:00,47.4,39.0,30.12,North,352,0.0,0.0,72,0.00,,,0.00,weatherlink.com 1.10,2013-03-13 02:45:00,
2013-03-12 22:00:00,47.1,39.0,30.12,NNW,328,0.0,1.0,73,0.00,,,0.00,weatherlink.com 1.10,2013-03-13 03:00:00,
2013-03-12 22:15:00,46.8,38.0,30.13,NNW,330,0.0,0.0,72,0.00,,,0.00,weatherlink.com 1.10,2013-03-13 03:15:00,
2013-03-12 22:30:00,46.5,38.0,30.13,NNW,330,0.0,0.0,73,0.00,,,0.00,weatherlink.com 1.10,2013-03-13 03:30:00,
2013-03-12 22:45:00,45.8,38.0,30.14,NNW,330,0.0,1.0,74,0.00,,,0.00,weatherlink.com 1.10,2013-03-13 03:45:00,
2013-03-12 23:00:00,45.2,38.0,30.14,NNW,330,0.0,0.0,77,0.00,,,0.00,weatherlink.com 1.10,2013-03-13 04:00:00,
2013-03-12 23:15:00,44.5,38.0,30.14,NNW,330,0.0,0.0,78,0.00,,,0.00,weatherlink.com 1.10,2013-03-13 04:15:00,
2013-03-12 23:30:00,44.0,38.0,30.14,NNW,330,0.0,0.0,79,0.00,,,0.00,weatherlink.com 1.10,2013-03-13 04:30:00,
2013-03-12 23:45:00,43.3,38.0,30.14,NNW,330,0.0,0.0,81,0.00,,,0.00,weatherlink.com 1.10,2013-03-13 04:45:00,